createdAt,value
2018-06-08T00:01:48.065Z,33.60
2018-06-08T00:04:20.498Z,33.70
2018-06-08T00:06:52.897Z,33.50
2018-06-08T00:09:25.074Z,33.50
2018-06-08T00:11:57.276Z,33.50
2018-06-08T00:14:29.827Z,33.50
2018-06-08T00:17:02.037Z,33.50
2018-06-08T00:19:34.578Z,33.50
2018-06-08T00:22:06.556Z,33.50
2018-06-08T00:24:39.841Z,33.50
2018-06-08T00:27:11.710Z,33.50
2018-06-08T00:29:44.980Z,33.40
2018-06-08T00:32:17.131Z,33.40
2018-06-08T00:34:49.374Z,33.50
2018-06-08T00:37:21.235Z,33.40
2018-06-08T00:39:53.692Z,33.30
2018-06-08T00:42:25.783Z,33.40
2018-06-08T00:44:58.525Z,33.40
2018-06-08T00:47:30.821Z,33.40
2018-06-08T00:52:35.511Z,33.20
2018-06-08T00:55:07.833Z,33.20
2018-06-08T00:57:39.758Z,33.20
2018-06-08T01:00:12.196Z,33.20
2018-06-08T01:02:44.318Z,33.20
2018-06-08T01:05:16.511Z,33.10
2018-06-08T01:07:48.179Z,33.10
2018-06-08T01:10:19.972Z,33.10
2018-06-08T01:12:51.629Z,33.10
2018-06-08T01:17:54.817Z,33.00
2018-06-08T01:22:57.604Z,32.90
2018-06-08T01:25:29.283Z,33.00
2018-06-08T01:28:00.971Z,32.90
2018-06-08T01:30:32.567Z,32.80
2018-06-08T01:33:04.056Z,32.80
2018-06-08T01:38:06.458Z,32.80
2018-06-08T01:40:38.785Z,32.70
2018-06-08T01:43:10.443Z,32.60
2018-06-08T01:45:42.469Z,32.50
2018-06-08T01:48:13.823Z,32.60
2018-06-08T01:50:46.810Z,32.60
2018-06-08T01:53:18.453Z,32.50
2018-06-08T01:55:50.241Z,32.50
2018-06-08T01:58:21.809Z,32.60
2018-06-08T02:00:53.860Z,32.60
2018-06-08T02:03:25.683Z,32.60
2018-06-08T02:05:57.559Z,32.60
2018-06-08T02:08:29.003Z,32.60
2018-06-08T02:11:00.658Z,32.60
2018-06-08T02:13:32.410Z,32.60
2018-06-08T02:16:03.988Z,32.70
2018-06-08T02:18:36.118Z,32.70
2018-06-08T02:21:08.182Z,32.80
2018-06-08T02:23:40.327Z,32.80
2018-06-08T02:26:12.053Z,32.90
2018-06-08T02:28:43.537Z,33.00
2018-06-08T02:31:15.615Z,33.20
2018-06-08T02:33:47.606Z,33.20
2018-06-08T02:36:19.271Z,33.20
2018-06-08T02:38:51.322Z,33.20
2018-06-08T02:41:23.133Z,33.20
2018-06-08T02:43:54.745Z,33.10
2018-06-08T02:46:26.503Z,33.10
2018-06-08T02:48:57.851Z,33.20
2018-06-08T02:51:30.959Z,33.20
2018-06-08T02:56:33.385Z,33.40
2018-06-08T02:59:05.070Z,33.50
2018-06-08T03:01:37.085Z,33.60
2018-06-08T03:04:09.005Z,33.70
2018-06-08T03:06:41.338Z,33.80
2018-06-08T03:09:13.097Z,34.00
2018-06-08T03:11:45.766Z,34.20
2018-06-08T03:14:17.323Z,34.30
2018-06-08T03:16:49.145Z,34.30
2018-06-08T03:19:20.834Z,34.30
2018-06-08T03:21:52.530Z,34.50
2018-06-08T03:24:24.219Z,34.50
2018-06-08T03:29:26.800Z,34.70
2018-06-08T03:31:59.119Z,34.80
2018-06-08T03:34:30.964Z,34.90
2018-06-08T03:39:33.570Z,35.00
2018-06-08T03:42:05.191Z,35.00
2018-06-08T03:44:37.168Z,35.20
2018-06-08T03:47:09.470Z,35.30
2018-06-08T03:49:41.069Z,35.50
2018-06-08T03:52:13.452Z,35.70
2018-06-08T03:54:45.125Z,35.70
2018-06-08T03:57:17.075Z,35.90
2018-06-08T03:59:48.571Z,36.00
2018-06-08T04:02:20.419Z,36.30
2018-06-08T04:09:53.836Z,36.80
2018-06-08T04:12:25.456Z,36.90
2018-06-08T04:14:57.128Z,37.10
2018-06-08T04:17:28.850Z,37.10
2018-06-08T04:20:00.496Z,37.20
2018-06-08T04:22:32.523Z,37.40
2018-06-08T04:25:04.260Z,37.50
2018-06-08T04:27:36.203Z,37.80
2018-06-08T04:30:09.553Z,37.90
2018-06-08T04:35:12.555Z,38.40
2018-06-08T04:37:44.729Z,38.50
2018-06-08T04:40:16.309Z,38.70
2018-06-08T04:42:48.531Z,39.00
2018-06-08T04:45:20.187Z,39.30
2018-06-08T04:47:52.045Z,39.70
2018-06-08T04:50:23.471Z,40.30
2018-06-08T04:52:56.337Z,41.10
2018-06-08T04:57:59.321Z,42.50
2018-06-08T05:00:31.103Z,43.40
2018-06-08T05:03:03.253Z,44.10
2018-06-08T05:05:34.977Z,44.50
2018-06-08T05:08:08.071Z,44.50
2018-06-08T05:10:39.939Z,43.90
2018-06-08T05:13:12.200Z,43.50
2018-06-08T05:15:43.862Z,43.40
2018-06-08T05:20:47.686Z,43.30
2018-06-08T05:23:19.827Z,43.50
2018-06-08T05:25:51.708Z,44.30
2018-06-08T05:28:23.604Z,45.00
2018-06-08T05:30:55.773Z,45.30
2018-06-08T05:33:27.966Z,45.30
2018-06-08T05:35:59.736Z,45.50
2018-06-08T05:38:31.487Z,46.10
2018-06-08T05:41:03.103Z,46.20
2018-06-08T05:48:42.187Z,44.90
2018-06-08T05:56:16.107Z,43.40
2018-06-08T05:58:48.149Z,43.40
2018-06-08T06:01:19.949Z,43.40
2018-06-08T06:06:22.450Z,43.40
2018-06-08T06:08:54.400Z,44.00
2018-06-08T06:11:26.489Z,44.40
2018-06-08T06:13:58.256Z,44.80
2018-06-08T06:16:29.930Z,44.80
2018-06-08T06:19:02.040Z,45.00
2018-06-08T06:21:33.612Z,45.30
2018-06-08T06:24:05.362Z,45.60
2018-06-08T06:26:36.964Z,45.70
2018-06-08T06:29:08.728Z,45.90
2018-06-08T06:31:40.152Z,45.70
2018-06-08T06:34:12.039Z,45.10
2018-06-08T06:36:43.688Z,45.30
2018-06-08T06:39:15.479Z,45.10
2018-06-08T06:41:47.222Z,45.20
2018-06-08T06:44:18.879Z,45.10
2018-06-08T06:46:50.531Z,44.40
2018-06-08T06:49:22.213Z,44.80
2018-06-08T06:51:53.938Z,44.70
2018-06-08T06:54:26.576Z,44.50
2018-06-08T06:59:29.150Z,44.10
2018-06-08T07:02:00.850Z,44.00
2018-06-08T07:04:32.406Z,44.30
2018-06-08T07:07:03.858Z,44.10
2018-06-08T07:09:36.816Z,44.20
2018-06-08T07:14:40.577Z,45.10
2018-06-08T07:17:12.437Z,45.20
2018-06-08T07:19:44.931Z,45.40
2018-06-08T07:22:17.613Z,46.20
2018-06-08T07:24:50.404Z,46.60
2018-06-08T07:27:22.655Z,47.40
2018-06-08T07:29:55.642Z,47.60
2018-06-08T07:32:28.336Z,47.70
2018-06-08T07:35:01.213Z,47.30
2018-06-08T07:37:33.663Z,47.00
2018-06-08T07:40:06.301Z,46.40
2018-06-08T07:42:38.910Z,46.10
2018-06-08T07:45:11.227Z,44.90
2018-06-08T07:47:43.391Z,44.30
2018-06-08T07:50:15.684Z,44.00
2018-06-08T07:52:47.819Z,43.40
2018-06-08T07:55:21.329Z,43.20
2018-06-08T07:57:53.365Z,43.20
2018-06-08T08:00:25.834Z,43.00
2018-06-08T08:02:58.069Z,42.90
2018-06-08T08:05:30.511Z,42.90
2018-06-08T08:08:03.020Z,42.80
2018-06-08T08:10:35.927Z,42.80
2018-06-08T08:13:07.963Z,42.90
2018-06-08T08:15:40.384Z,42.90
2018-06-08T08:18:12.889Z,42.80
2018-06-08T08:20:45.575Z,42.80
2018-06-08T08:23:17.286Z,42.60
2018-06-08T08:25:49.256Z,42.50
2018-06-08T08:28:20.980Z,42.40
2018-06-08T08:30:53.685Z,42.40
2018-06-08T08:33:25.257Z,42.20
2018-06-08T08:35:57.045Z,42.10
2018-06-08T08:38:28.594Z,41.80
2018-06-08T08:41:00.408Z,41.90
2018-06-08T08:43:32.624Z,42.00
2018-06-08T08:46:04.407Z,41.80
2018-06-08T08:48:35.938Z,41.60
2018-06-08T08:56:12.291Z,42.00
2018-06-08T08:58:43.902Z,42.10
2018-06-08T09:01:15.835Z,41.90
2018-06-08T09:03:47.601Z,42.00
2018-06-08T09:06:19.551Z,42.20
2018-06-08T09:08:51.254Z,42.20
2018-06-08T09:11:23.414Z,42.00
2018-06-08T09:13:55.168Z,41.90
2018-06-08T09:16:27.123Z,42.00
2018-06-08T09:18:58.807Z,41.80
2018-06-08T09:21:30.611Z,41.90
2018-06-08T09:24:02.437Z,41.60
2018-06-08T09:26:35.125Z,41.60
2018-06-08T09:29:06.568Z,41.60
2018-06-08T09:31:38.251Z,41.60
2018-06-08T09:34:09.885Z,41.60
2018-06-08T09:36:41.692Z,41.60
2018-06-08T09:39:13.207Z,41.60
2018-06-08T09:41:45.158Z,41.60
2018-06-08T09:46:47.611Z,41.80
2018-06-08T09:49:19.310Z,41.90
2018-06-08T09:54:22.092Z,41.80
2018-06-08T09:56:54.799Z,41.90
2018-06-08T09:59:26.300Z,41.90
2018-06-08T10:01:58.254Z,41.90
2018-06-08T10:04:30.175Z,42.00
2018-06-08T10:09:32.816Z,41.80
2018-06-08T10:12:04.444Z,41.70
2018-06-08T10:14:36.036Z,41.60
2018-06-08T10:17:07.945Z,41.60
2018-06-08T10:19:39.456Z,41.80
2018-06-08T10:22:11.071Z,42.00
2018-06-08T10:24:42.724Z,41.80
2018-06-08T10:27:15.195Z,41.70
2018-06-08T10:29:46.735Z,41.80
2018-06-08T10:37:20.203Z,41.50
2018-06-08T10:39:51.817Z,41.50
2018-06-08T10:44:54.515Z,41.60
2018-06-08T10:47:26.402Z,41.60
2018-06-08T10:49:57.902Z,41.50
2018-06-08T10:52:30.100Z,41.50
2018-06-08T10:55:01.832Z,41.30
2018-06-08T10:57:35.428Z,41.20
2018-06-08T11:00:07.854Z,40.90
2018-06-08T11:02:40.121Z,40.90
2018-06-08T11:05:12.071Z,40.80
2018-06-08T11:07:44.132Z,40.70
2018-06-08T11:10:15.893Z,40.60
2018-06-08T11:12:47.648Z,40.60
2018-06-08T11:15:21.844Z,40.60
2018-06-08T11:17:53.749Z,40.60
2018-06-08T11:20:25.490Z,40.70
2018-06-08T11:22:57.359Z,40.60
2018-06-08T11:25:28.991Z,40.70
2018-06-08T11:30:32.122Z,41.10
2018-06-08T11:33:03.973Z,41.00
2018-06-08T11:35:36.052Z,41.10
2018-06-08T11:40:39.190Z,41.30
2018-06-08T11:43:11.871Z,41.30
2018-06-08T11:45:43.580Z,41.00
2018-06-08T11:48:15.675Z,41.10
2018-06-08T11:50:47.148Z,41.10
2018-06-08T11:53:19.028Z,41.10
2018-06-08T11:55:50.626Z,41.00
2018-06-08T11:58:23.443Z,41.00
2018-06-08T12:00:55.324Z,41.10
2018-06-08T12:03:27.283Z,41.20
2018-06-08T12:05:58.881Z,41.40
2018-06-08T12:08:30.808Z,41.40
2018-06-08T12:11:02.471Z,41.30
2018-06-08T12:13:34.329Z,41.30
2018-06-08T12:16:06.024Z,41.40
2018-06-08T12:18:37.962Z,41.40
2018-06-08T12:21:09.479Z,41.40
2018-06-08T12:23:41.166Z,41.30
2018-06-08T12:26:12.801Z,41.30
2018-06-08T12:31:15.017Z,41.20
2018-06-08T12:33:47.084Z,41.10
2018-06-08T12:36:18.904Z,41.10
2018-06-08T12:41:21.820Z,40.80
2018-06-08T12:43:53.712Z,40.90
2018-06-08T12:46:25.532Z,40.90
2018-06-08T12:48:57.652Z,40.70
2018-06-08T12:51:29.163Z,40.60
2018-06-08T12:56:31.808Z,40.50
2018-06-08T12:59:05.439Z,40.50
2018-06-08T13:01:36.901Z,40.50
2018-06-08T13:06:39.618Z,40.40
2018-06-08T13:11:42.990Z,40.20
2018-06-08T13:14:15.275Z,40.00
2018-06-08T13:16:47.022Z,39.90
2018-06-08T13:19:19.275Z,40.00
2018-06-08T13:21:50.981Z,39.80
2018-06-08T13:24:22.636Z,39.80
2018-06-08T13:31:56.494Z,39.60
2018-06-08T13:34:28.374Z,39.60
2018-06-08T13:36:59.823Z,39.60
2018-06-08T13:39:31.683Z,39.50
2018-06-08T13:42:03.362Z,39.50
2018-06-08T13:44:35.422Z,39.40
2018-06-08T13:47:07.523Z,39.40
2018-06-08T13:49:39.151Z,39.40
2018-06-08T13:52:10.999Z,39.30
2018-06-08T13:54:42.978Z,39.20
2018-06-08T13:57:14.677Z,39.20
2018-06-08T14:02:18.857Z,39.10
2018-06-08T14:04:51.167Z,38.90
2018-06-08T14:07:23.218Z,38.70
2018-06-08T14:09:55.335Z,38.70
2018-06-08T14:12:27.100Z,38.70
2018-06-08T14:14:59.017Z,38.70
2018-06-08T14:17:30.762Z,38.80
2018-06-08T14:20:02.843Z,38.70
2018-06-08T14:22:34.545Z,38.60
2018-06-08T14:25:06.157Z,38.40
2018-06-08T14:27:38.276Z,38.30
2018-06-08T14:30:10.388Z,38.20
2018-06-08T14:32:41.936Z,38.10
2018-06-08T14:35:13.678Z,38.20
2018-06-08T14:37:45.402Z,38.20
2018-06-08T14:40:17.096Z,37.90
2018-06-08T14:42:48.985Z,37.70
2018-06-08T14:45:21.075Z,37.50
2018-06-08T14:50:24.009Z,37.40
2018-06-08T14:52:55.680Z,37.40
2018-06-08T14:55:27.230Z,37.30
2018-06-08T14:57:58.963Z,37.20
2018-06-08T15:00:31.883Z,37.10
2018-06-08T15:03:03.392Z,37.10
2018-06-08T15:05:35.502Z,37.00
2018-06-08T15:08:07.697Z,36.90
2018-06-08T15:10:39.730Z,36.80
2018-06-08T15:13:11.506Z,36.80
2018-06-08T15:15:43.224Z,36.70
2018-06-08T15:18:14.780Z,36.80
2018-06-08T15:23:17.305Z,36.80
2018-06-08T15:25:49.192Z,36.70
2018-06-08T15:28:20.703Z,36.70
2018-06-08T15:30:52.418Z,36.80
2018-06-08T15:33:24.196Z,36.80
2018-06-08T15:35:56.228Z,36.80
2018-06-08T15:38:27.939Z,36.90
2018-06-08T15:40:59.563Z,36.80
2018-06-08T15:43:31.061Z,36.80
2018-06-08T15:46:03.069Z,36.80
2018-06-08T15:51:06.279Z,36.60
2018-06-08T15:53:38.016Z,36.60
2018-06-08T15:56:09.762Z,36.50
2018-06-08T15:58:41.272Z,36.50
2018-06-08T16:01:13.567Z,36.40
2018-06-08T16:03:45.186Z,36.40
2018-06-08T16:06:17.325Z,36.30
2018-06-08T16:08:48.898Z,36.30
2018-06-08T16:11:20.924Z,36.30
2018-06-08T16:13:52.723Z,36.20
2018-06-08T16:16:24.658Z,36.20
2018-06-08T16:18:56.291Z,36.10
2018-06-08T16:23:58.795Z,35.90
2018-06-08T16:26:30.519Z,35.90
2018-06-08T16:29:02.591Z,35.90
2018-06-08T16:31:34.748Z,36.00
2018-06-08T16:34:06.591Z,36.00
2018-06-08T16:36:38.332Z,35.90
2018-06-08T16:39:10.431Z,36.00
2018-06-08T16:41:42.279Z,35.90
2018-06-08T16:44:13.923Z,35.90
2018-06-08T16:46:45.637Z,35.90
2018-06-08T16:49:19.961Z,36.00
2018-06-08T16:56:54.131Z,35.90
2018-06-08T16:59:25.750Z,35.90
2018-06-08T17:01:58.748Z,35.80
2018-06-08T17:04:30.645Z,35.80
2018-06-08T17:07:02.576Z,35.70
2018-06-08T17:09:34.059Z,35.70
2018-06-08T17:12:06.241Z,35.70
2018-06-08T17:14:37.801Z,35.70
2018-06-08T17:17:10.023Z,35.70
2018-06-08T17:19:41.533Z,35.70
2018-06-08T17:22:13.442Z,35.70
2018-06-08T17:24:45.035Z,35.70
2018-06-08T17:27:19.521Z,35.60
2018-06-08T17:29:51.311Z,35.60
2018-06-08T17:32:23.500Z,35.60
2018-06-08T17:34:55.227Z,35.60
2018-06-08T17:37:27.366Z,35.50
2018-06-08T17:39:58.910Z,35.60
2018-06-08T17:42:30.837Z,35.50
2018-06-08T17:45:02.375Z,35.40
2018-06-08T17:47:34.075Z,35.30
2018-06-08T17:50:05.554Z,35.20
2018-06-08T17:52:37.774Z,35.30
2018-06-08T17:55:09.407Z,35.30
2018-06-08T17:57:42.862Z,35.30
2018-06-08T18:00:14.422Z,35.20
2018-06-08T18:02:47.404Z,35.20
2018-06-08T18:05:18.881Z,35.30
2018-06-08T18:10:21.364Z,35.10
2018-06-08T18:12:53.154Z,35.10
2018-06-08T18:15:25.074Z,35.00
2018-06-08T18:17:57.072Z,35.10
2018-06-08T18:20:28.973Z,34.90
2018-06-08T18:23:01.118Z,34.90
2018-06-08T18:25:33.080Z,35.00
2018-06-08T18:28:04.559Z,34.90
2018-06-08T18:30:36.220Z,35.00
2018-06-08T18:33:08.945Z,34.80
2018-06-08T18:38:11.297Z,34.60
2018-06-08T18:40:42.964Z,34.60
2018-06-08T18:43:15.194Z,34.50
2018-06-08T18:45:49.463Z,34.50
2018-06-08T18:48:20.907Z,34.50
2018-06-08T18:50:52.520Z,34.30
2018-06-08T18:53:24.453Z,34.30
2018-06-08T18:58:27.072Z,34.10
2018-06-08T19:00:58.600Z,34.10
2018-06-08T19:03:32.227Z,34.10
2018-06-08T19:06:03.914Z,34.10
2018-06-08T19:08:35.883Z,34.10
2018-06-08T19:11:07.460Z,34.10
2018-06-08T19:13:39.156Z,34.10
2018-06-08T19:16:10.779Z,34.10
2018-06-08T19:18:42.729Z,34.10
2018-06-08T19:21:15.588Z,34.10
2018-06-08T19:23:47.640Z,34.00
2018-06-08T19:26:19.503Z,34.00
2018-06-08T19:31:22.377Z,33.90
2018-06-08T19:33:54.778Z,33.90
2018-06-08T19:36:26.314Z,33.90
2018-06-08T19:38:58.557Z,33.90
2018-06-08T19:41:30.455Z,33.90
2018-06-08T19:46:33.354Z,34.10
2018-06-08T19:49:05.215Z,34.10
2018-06-08T19:51:36.810Z,34.10
2018-06-08T19:54:08.567Z,34.10
2018-06-08T19:56:40.481Z,34.10
2018-06-08T19:59:12.754Z,34.10
2018-06-08T20:01:45.028Z,34.10
2018-06-08T20:04:18.164Z,34.10
2018-06-08T20:06:49.591Z,34.10
2018-06-08T20:11:51.849Z,34.10
2018-06-08T20:14:23.730Z,34.00
2018-06-08T20:16:55.423Z,34.10
2018-06-08T20:19:27.452Z,34.00
2018-06-08T20:21:59.154Z,33.90
2018-06-08T20:24:31.339Z,33.90
2018-06-08T20:27:03.035Z,33.90
2018-06-08T20:29:34.959Z,33.90
2018-06-08T20:32:07.452Z,33.70
2018-06-08T20:34:39.318Z,33.60
2018-06-08T20:37:10.902Z,33.60
2018-06-08T20:39:42.983Z,33.60
2018-06-08T20:42:14.678Z,33.70
2018-06-08T20:44:46.938Z,33.60
2018-06-08T20:47:18.780Z,33.60
2018-06-08T20:49:50.266Z,33.50
2018-06-08T20:52:21.943Z,33.50
2018-06-08T20:54:53.679Z,33.50
2018-06-08T20:57:29.528Z,33.50
2018-06-08T21:00:01.149Z,33.60
2018-06-08T21:02:32.874Z,33.60
2018-06-08T21:05:06.048Z,33.60
2018-06-08T21:07:37.707Z,33.50
2018-06-08T21:10:09.819Z,33.60
2018-06-08T21:12:41.371Z,33.50
2018-06-08T21:15:13.329Z,33.60
2018-06-08T21:17:45.027Z,33.60
2018-06-08T21:20:16.796Z,33.80
2018-06-08T21:22:48.470Z,33.60
2018-06-08T21:25:20.503Z,33.50
2018-06-08T21:27:52.095Z,33.40
2018-06-08T21:30:23.950Z,33.40
2018-06-08T21:32:55.427Z,33.50
2018-06-08T21:35:28.381Z,33.40
2018-06-08T21:38:00.087Z,33.40
2018-06-08T21:40:31.775Z,33.40
2018-06-08T21:43:03.369Z,33.30
2018-06-08T21:45:35.136Z,33.40
2018-06-08T21:48:06.726Z,33.30
2018-06-08T21:50:38.464Z,33.40
2018-06-08T21:53:10.091Z,33.30
2018-06-08T21:55:42.028Z,33.30
2018-06-08T21:58:13.518Z,33.30
2018-06-08T22:00:45.432Z,33.30
2018-06-08T22:03:17.159Z,33.30
2018-06-08T22:10:51.619Z,33.20
2018-06-08T22:13:23.256Z,33.10
2018-06-08T22:15:55.742Z,33.10
2018-06-08T22:18:27.172Z,33.10
2018-06-08T22:20:59.100Z,33.10
2018-06-08T22:23:31.103Z,33.10
2018-06-08T22:26:03.448Z,33.10
2018-06-08T22:28:34.873Z,33.20
2018-06-08T22:31:06.882Z,33.10
2018-06-08T22:33:38.597Z,33.00
2018-06-08T22:36:10.829Z,33.00
2018-06-08T22:38:42.319Z,33.00
2018-06-08T22:41:14.274Z,32.90
2018-06-08T22:43:45.888Z,32.90
2018-06-08T22:48:48.479Z,32.90
2018-06-08T22:51:20.416Z,32.90
2018-06-08T22:53:51.844Z,32.80
2018-06-08T22:56:23.620Z,32.80
2018-06-08T22:58:55.323Z,32.80
2018-06-08T23:01:27.235Z,32.70
2018-06-08T23:03:58.687Z,32.70
2018-06-08T23:09:02.197Z,32.70
2018-06-08T23:11:34.228Z,32.70
2018-06-08T23:14:06.024Z,32.60
2018-06-08T23:19:09.184Z,32.50
2018-06-08T23:21:41.155Z,32.50
2018-06-08T23:24:12.782Z,32.50
2018-06-08T23:26:44.905Z,32.40
2018-06-08T23:29:16.341Z,32.40
2018-06-08T23:31:48.509Z,32.30
2018-06-08T23:34:20.227Z,32.40
2018-06-08T23:36:52.201Z,32.30
2018-06-08T23:39:23.693Z,32.30
2018-06-08T23:41:56.266Z,32.30
2018-06-08T23:44:27.720Z,32.30
2018-06-08T23:46:59.528Z,32.20
2018-06-08T23:49:31.187Z,32.30
2018-06-08T23:52:02.791Z,32.20
2018-06-08T23:54:34.768Z,32.20
2018-06-08T23:59:37.894Z,32.10
